createdAt,value
2023-04-02T00:00:16.389Z,74.90
2023-04-02T00:03:14.110Z,75.50
2023-04-02T00:06:40.770Z,74.70
2023-04-02T00:09:38.799Z,75.00
2023-04-02T00:12:37.339Z,72.90
2023-04-02T00:15:35.693Z,73.80
2023-04-02T00:18:37.709Z,71.40
2023-04-02T00:21:39.894Z,70.60
2023-04-02T00:24:40.434Z,70.40
2023-04-02T00:27:38.109Z,71.20
2023-04-02T00:30:37.312Z,70.40
2023-04-02T00:33:35.808Z,70.50
2023-04-02T00:36:35.321Z,70.60
2023-04-02T00:39:42.519Z,71.50
2023-04-02T00:42:41.872Z,71.80
2023-04-02T00:45:39.838Z,72.60
2023-04-02T00:48:46.366Z,75.40
2023-04-02T00:51:54.110Z,77.60
2023-04-02T00:54:59.103Z,75.50
2023-04-02T00:57:58.412Z,75.30
2023-04-02T01:00:57.292Z,74.60
2023-04-02T01:03:58.661Z,73.10
2023-04-02T01:06:57.261Z,70.50
2023-04-02T01:10:18.867Z,71.00
2023-04-02T01:13:28.376Z,71.20
2023-04-02T01:16:50.828Z,71.00
2023-04-02T01:20:14.763Z,71.40
2023-04-02T01:23:31.466Z,68.20
2023-04-02T01:26:45.386Z,68.00
2023-04-02T01:29:59.247Z,67.00
2023-04-02T01:32:57.731Z,65.70
2023-04-02T01:36:18.216Z,66.50
2023-04-02T01:39:41.993Z,66.20
2023-04-02T01:42:52.788Z,66.80
2023-04-02T01:45:51.215Z,66.10
2023-04-02T01:48:49.040Z,66.20
2023-04-02T01:51:53.586Z,66.80
2023-04-02T01:54:53.268Z,65.70
2023-04-02T01:57:54.518Z,64.60
2023-04-02T02:00:58.482Z,66.50
2023-04-02T02:03:56.714Z,65.70
2023-04-02T02:06:54.729Z,66.10
2023-04-02T02:09:53.040Z,66.50
2023-04-02T02:12:51.240Z,65.90
2023-04-02T02:15:49.284Z,65.50
2023-04-02T02:18:51.852Z,65.70
2023-04-02T02:21:54.062Z,63.80
2023-04-02T02:24:51.894Z,64.20
2023-04-02T02:28:20.249Z,64.90
2023-04-02T02:31:29.643Z,64.80
2023-04-02T02:34:36.840Z,63.70
2023-04-02T02:37:42.789Z,64.50
2023-04-02T02:40:46.104Z,62.00
2023-04-02T02:43:50.983Z,61.80
2023-04-02T02:46:59.382Z,62.80
2023-04-02T02:50:02.366Z,61.70
2023-04-02T02:53:04.961Z,60.80
2023-04-02T02:56:03.073Z,61.00
2023-04-02T02:59:02.403Z,60.90
2023-04-02T03:02:01.694Z,61.70
2023-04-02T03:04:59.921Z,62.90
2023-04-02T03:07:58.994Z,62.20
2023-04-02T03:11:07.522Z,62.90
2023-04-02T03:14:19.075Z,63.30
2023-04-02T03:17:27.435Z,62.60
2023-04-02T03:20:44.458Z,63.00
2023-04-02T03:23:51.955Z,61.50
2023-04-02T03:26:56.008Z,59.80
2023-04-02T03:30:24.770Z,60.00
2023-04-02T03:33:28.655Z,58.60
2023-04-02T03:36:35.214Z,59.10
2023-04-02T03:39:42.032Z,57.80
2023-04-02T03:42:51.878Z,57.30
2023-04-02T03:45:53.918Z,56.60
2023-04-02T03:48:56.700Z,57.30
2023-04-02T03:52:03.371Z,57.00
2023-04-02T03:55:03.499Z,57.10
2023-04-02T03:58:23.294Z,57.20
2023-04-02T04:01:30.394Z,55.50
2023-04-02T04:04:30.974Z,55.10
2023-04-02T04:07:34.171Z,54.50
2023-04-02T04:10:32.585Z,54.30
2023-04-02T04:13:39.508Z,53.50
2023-04-02T04:17:07.832Z,52.80
2023-04-02T04:20:24.631Z,52.40
2023-04-02T04:23:44.772Z,51.10
2023-04-02T04:26:55.835Z,52.40
2023-04-02T04:30:23.558Z,50.10
2023-04-02T04:33:42.435Z,49.20
2023-04-02T04:36:48.634Z,48.10
2023-04-02T04:39:51.854Z,46.90
2023-04-02T04:42:52.473Z,47.50
2023-04-02T04:46:08.699Z,46.20
2023-04-02T04:49:18.269Z,46.80
2023-04-02T04:52:25.043Z,47.30
2023-04-02T04:55:35.689Z,44.70
2023-04-02T04:58:50.645Z,44.90
2023-04-02T05:01:58.689Z,45.40
2023-04-02T05:04:57.487Z,46.20
2023-04-02T05:08:06.720Z,45.00
2023-04-02T05:11:15.740Z,45.00
2023-04-02T05:14:38.495Z,45.70
2023-04-02T05:17:39.294Z,44.70
2023-04-02T05:20:48.189Z,45.00
2023-04-02T05:23:52.591Z,44.80
2023-04-02T05:26:52.705Z,45.30
2023-04-02T05:30:04.281Z,44.40
2023-04-02T05:33:08.554Z,44.60
2023-04-02T05:36:28.598Z,45.40
2023-04-02T05:39:28.082Z,45.10
2023-04-02T05:42:32.601Z,45.40
2023-04-02T05:45:37.875Z,45.20
2023-04-02T05:48:43.911Z,44.70
2023-04-02T05:51:49.616Z,46.30
2023-04-02T05:55:01.074Z,45.30
2023-04-02T05:58:29.522Z,45.70
2023-04-02T06:01:29.930Z,45.20
2023-04-02T06:04:46.930Z,45.90
2023-04-02T06:08:00.594Z,46.20
2023-04-02T06:11:24.101Z,44.70
2023-04-02T06:14:21.997Z,45.10
2023-04-02T06:17:21.800Z,45.10
2023-04-02T06:20:21.786Z,46.60
2023-04-02T06:23:19.652Z,46.00
2023-04-02T06:26:48.220Z,45.30
2023-04-02T06:29:49.128Z,45.30
2023-04-02T06:32:48.205Z,45.80
2023-04-02T06:35:49.353Z,45.40
2023-04-02T06:38:49.837Z,46.00
2023-04-02T06:41:48.206Z,45.70
2023-04-02T06:44:46.467Z,45.30
2023-04-02T06:47:47.660Z,45.80
2023-04-02T06:50:50.997Z,46.60
2023-04-02T06:53:49.137Z,45.40
2023-04-02T06:56:48.152Z,45.10
2023-04-02T06:59:46.540Z,44.80
2023-04-02T07:02:44.887Z,45.80
2023-04-02T07:05:43.026Z,44.40
2023-04-02T07:08:41.234Z,46.00
2023-04-02T07:11:39.179Z,45.50
2023-04-02T07:14:37.133Z,45.30
2023-04-02T07:17:34.871Z,44.80
2023-04-02T07:20:38.098Z,44.70
2023-04-02T07:23:38.192Z,47.20
2023-04-02T07:26:36.077Z,44.90
2023-04-02T07:29:33.835Z,45.30
2023-04-02T07:32:32.052Z,45.80
2023-04-02T07:35:30.302Z,45.90
2023-04-02T07:38:28.260Z,45.60
2023-04-02T07:41:27.168Z,45.00
2023-04-02T07:44:25.436Z,45.80
2023-04-02T07:47:23.271Z,45.30
2023-04-02T07:50:21.118Z,45.30
2023-04-02T07:53:35.432Z,44.30
2023-04-02T07:56:33.142Z,44.20
2023-04-02T07:59:31.357Z,43.90
2023-04-02T08:02:29.216Z,43.30
2023-04-02T08:05:28.394Z,43.80
2023-04-02T08:08:27.202Z,43.00
2023-04-02T08:11:25.558Z,43.40
2023-04-02T08:14:23.415Z,43.20
2023-04-02T08:17:21.866Z,43.60
2023-04-02T08:20:22.613Z,43.30
2023-04-02T08:23:21.388Z,43.80
2023-04-02T08:26:19.843Z,43.90
2023-04-02T08:29:17.959Z,42.90
2023-04-02T08:32:16.907Z,44.10
2023-04-02T08:35:18.277Z,43.30
2023-04-02T08:38:18.635Z,43.30
2023-04-02T08:41:31.745Z,44.60
2023-04-02T08:44:37.166Z,44.90
2023-04-02T08:47:41.826Z,44.20
2023-04-02T08:50:42.806Z,43.10
2023-04-02T08:53:42.825Z,43.10
2023-04-02T08:56:50.295Z,43.40
2023-04-02T08:59:48.783Z,43.20
2023-04-02T09:02:56.815Z,44.20
2023-04-02T09:05:55.546Z,42.80
2023-04-02T09:08:54.891Z,43.30
2023-04-02T09:12:04.715Z,43.70
2023-04-02T09:15:05.662Z,42.70
2023-04-02T09:18:17.155Z,43.80
2023-04-02T09:21:39.565Z,43.00
2023-04-02T09:24:38.480Z,42.50
2023-04-02T09:27:37.349Z,44.20
2023-04-02T09:31:07.127Z,46.20
2023-04-02T09:34:33.225Z,43.40
2023-04-02T09:37:30.979Z,43.80
2023-04-02T09:40:33.206Z,43.10
2023-04-02T09:43:36.400Z,42.90
2023-04-02T09:46:35.098Z,45.50
2023-04-02T09:49:38.699Z,44.30
2023-04-02T09:52:36.985Z,46.20
2023-04-02T09:55:35.268Z,44.60
2023-04-02T09:58:33.249Z,45.70
2023-04-02T10:01:40.385Z,44.40
2023-04-02T10:04:47.831Z,46.40
2023-04-02T10:07:49.482Z,43.90
2023-04-02T10:10:53.811Z,46.80
2023-04-02T10:14:26.648Z,45.70
2023-04-02T10:17:32.843Z,43.40
2023-04-02T10:20:36.326Z,44.00
2023-04-02T10:23:40.062Z,44.60
2023-04-02T10:27:03.420Z,47.30
2023-04-02T10:30:16.196Z,44.00
2023-04-02T10:33:29.064Z,43.10
2023-04-02T10:36:39.422Z,42.10
2023-04-02T10:39:48.151Z,42.80
2023-04-02T10:42:56.994Z,43.10
2023-04-02T10:46:13.290Z,43.60
2023-04-02T10:49:22.884Z,43.40
2023-04-02T10:52:56.618Z,45.80
2023-04-02T10:56:04.184Z,48.30
2023-04-02T10:59:28.277Z,48.80
2023-04-02T11:02:30.438Z,57.60
2023-04-02T11:05:44.584Z,47.60
2023-04-02T11:08:49.077Z,53.30
2023-04-02T11:11:52.527Z,47.70
2023-04-02T11:14:51.918Z,42.80
2023-04-02T11:17:50.506Z,42.00
2023-04-02T11:20:51.450Z,43.70
2023-04-02T11:24:06.413Z,43.60
2023-04-02T11:27:12.567Z,43.10
2023-04-02T11:30:27.848Z,43.60
2023-04-02T11:33:36.560Z,43.80
2023-04-02T11:36:51.704Z,44.00
2023-04-02T11:40:00.367Z,45.10
2023-04-02T11:43:36.555Z,44.10
2023-04-02T11:46:41.558Z,44.20
2023-04-02T11:49:41.852Z,43.80
2023-04-02T11:53:06.193Z,44.80
2023-04-02T11:56:50.393Z,43.60
2023-04-02T12:00:09.505Z,44.60
2023-04-02T12:03:45.002Z,44.00
2023-04-02T12:06:48.661Z,44.30
2023-04-02T12:09:48.877Z,44.50
2023-04-02T12:12:47.787Z,45.20
2023-04-02T12:15:50.240Z,44.00
2023-04-02T12:18:56.724Z,43.90
2023-04-02T12:21:54.915Z,44.40
2023-04-02T12:24:55.489Z,45.30
2023-04-02T12:28:11.458Z,44.90
2023-04-02T12:31:09.596Z,44.30
2023-04-02T12:34:19.491Z,45.00
2023-04-02T12:37:29.442Z,45.00
2023-04-02T12:40:27.976Z,44.90
2023-04-02T12:43:30.851Z,46.00
2023-04-02T12:46:30.586Z,46.30
2023-04-02T12:49:45.203Z,45.20
2023-04-02T12:52:49.761Z,45.10
2023-04-02T12:55:49.628Z,45.50
2023-04-02T12:58:57.774Z,45.90
2023-04-02T13:02:03.842Z,46.30
2023-04-02T13:05:03.032Z,46.00
2023-04-02T13:08:01.885Z,46.90
2023-04-02T13:11:05.440Z,46.10
2023-04-02T13:14:06.563Z,45.90
2023-04-02T13:17:04.419Z,46.40
2023-04-02T13:20:58.048Z,46.80
2023-04-02T13:23:56.153Z,46.80
2023-04-02T13:26:59.358Z,47.50
2023-04-02T13:29:57.158Z,47.10
2023-04-02T13:32:55.458Z,47.80
2023-04-02T13:35:53.674Z,48.20
2023-04-02T13:38:51.554Z,48.10
2023-04-02T13:42:12.291Z,48.10
2023-04-02T13:45:30.325Z,49.00
2023-04-02T13:48:29.457Z,48.50
2023-04-02T13:52:06.354Z,49.30
2023-04-02T13:55:05.109Z,50.20
2023-04-02T13:58:04.196Z,50.70
2023-04-02T14:01:02.616Z,51.20
2023-04-02T14:04:01.040Z,51.70
2023-04-02T14:07:29.898Z,52.80
2023-04-02T14:10:59.225Z,52.00
2023-04-02T14:14:34.279Z,52.30
2023-04-02T14:18:10.709Z,52.60
2023-04-02T14:21:15.701Z,52.50
2023-04-02T14:24:37.350Z,52.80
2023-04-02T14:27:49.864Z,53.20
2023-04-02T14:31:16.555Z,54.60
2023-04-02T14:34:29.692Z,54.40
2023-04-02T14:37:51.860Z,54.50
2023-04-02T14:40:56.529Z,55.00
2023-04-02T14:44:08.212Z,54.90
2023-04-02T14:47:37.475Z,55.10
2023-04-02T14:50:43.744Z,55.20
2023-04-02T14:54:10.538Z,55.70
2023-04-02T14:57:24.871Z,56.30
2023-04-02T15:00:28.528Z,56.90
2023-04-02T15:03:35.837Z,57.30
2023-04-02T15:06:45.410Z,57.60
2023-04-02T15:10:02.679Z,58.00
2023-04-02T15:13:05.940Z,58.40
2023-04-02T15:16:17.071Z,58.40
2023-04-02T15:19:20.425Z,58.70
2023-04-02T15:22:33.815Z,59.10
2023-04-02T15:25:48.666Z,59.50
2023-04-02T15:29:33.214Z,60.00
2023-04-02T15:32:37.172Z,59.80
2023-04-02T15:35:56.950Z,61.10
2023-04-02T15:39:22.959Z,61.10
2023-04-02T15:42:21.124Z,60.90
2023-04-02T15:45:58.441Z,60.80
2023-04-02T15:49:35.892Z,61.80
2023-04-02T15:52:49.870Z,61.20
2023-04-02T15:55:57.742Z,61.10
2023-04-02T15:59:22.054Z,61.90
2023-04-02T16:02:45.318Z,62.30
2023-04-02T16:05:46.690Z,63.30
2023-04-02T16:08:59.223Z,64.10
2023-04-02T16:12:12.138Z,65.20
2023-04-02T16:15:19.592Z,65.10
2023-04-02T16:18:39.299Z,65.40
2023-04-02T16:21:51.725Z,66.10
2023-04-02T16:24:57.892Z,66.50
2023-04-02T16:28:23.494Z,66.50
2023-04-02T16:31:50.783Z,67.10
2023-04-02T16:38:36.181Z,66.80
2023-04-02T16:41:49.146Z,67.10
2023-04-02T16:44:54.834Z,67.80
2023-04-02T16:48:22.221Z,68.10
2023-04-02T16:51:27.264Z,68.60
2023-04-02T16:54:49.830Z,67.30
2023-04-02T16:57:53.706Z,66.50
2023-04-02T17:00:59.338Z,66.60
2023-04-02T17:04:20.134Z,66.40
2023-04-02T17:07:35.095Z,66.50
2023-04-02T17:10:45.673Z,65.80
2023-04-02T17:13:45.775Z,65.90
2023-04-02T17:16:46.578Z,68.00
2023-04-02T17:19:45.944Z,68.60
2023-04-02T17:22:44.247Z,68.50
2023-04-02T17:25:57.269Z,67.90
2023-04-02T17:28:55.776Z,67.10
2023-04-02T17:32:00.871Z,64.80
2023-04-02T17:35:44.006Z,64.70
2023-04-02T17:38:49.898Z,63.80
2023-04-02T17:41:55.508Z,63.90
2023-04-02T17:45:02.615Z,62.10
2023-04-02T17:48:26.629Z,60.20
2023-04-02T17:51:31.146Z,58.30
2023-04-02T17:55:05.627Z,56.20
2023-04-02T17:58:33.283Z,54.40
2023-04-02T18:01:52.329Z,53.90
2023-04-02T18:04:59.262Z,54.00
2023-04-02T18:08:26.709Z,53.80
2023-04-02T18:12:00.434Z,53.50
2023-04-02T18:15:33.048Z,53.70
2023-04-02T18:19:06.894Z,57.70
2023-04-02T18:22:31.923Z,55.50
2023-04-02T18:25:44.582Z,59.80
2023-04-02T18:29:10.358Z,63.70
2023-04-02T18:32:42.222Z,63.40
2023-04-02T18:36:08.143Z,63.50
2023-04-02T18:39:24.268Z,63.80
2023-04-02T18:42:37.220Z,63.30
2023-04-02T18:45:46.870Z,63.40
2023-04-02T18:48:54.391Z,63.80
2023-04-02T18:52:03.172Z,63.90
2023-04-02T18:55:28.739Z,63.40
2023-04-02T18:58:41.726Z,63.20
2023-04-02T19:01:44.253Z,64.70
2023-04-02T19:04:52.608Z,64.60
2023-04-02T19:07:55.245Z,64.80
2023-04-02T19:11:00.603Z,64.30
2023-04-02T19:14:03.780Z,62.50
2023-04-02T19:17:24.610Z,61.10
2023-04-02T19:20:57.631Z,61.00
2023-04-02T19:23:58.240Z,61.10
2023-04-02T19:27:05.802Z,61.00
2023-04-02T19:30:39.719Z,62.10
2023-04-02T19:33:42.904Z,61.50
2023-04-02T19:36:55.779Z,60.90
2023-04-02T19:40:31.953Z,59.80
2023-04-02T19:43:30.375Z,58.60
2023-04-02T19:46:28.850Z,55.60
2023-04-02T19:49:36.075Z,55.50
2023-04-02T19:52:33.933Z,55.30
2023-04-02T19:55:31.770Z,56.80
2023-04-02T19:58:35.228Z,56.70
2023-04-02T20:01:33.010Z,58.00
2023-04-02T20:04:31.037Z,56.90
2023-04-02T20:07:31.124Z,56.80
2023-04-02T20:10:28.908Z,57.20
2023-04-02T20:13:26.909Z,60.10
2023-04-02T20:16:25.311Z,60.00
2023-04-02T20:19:23.327Z,55.70
2023-04-02T20:22:21.665Z,56.20
2023-04-02T20:25:19.370Z,57.00
2023-04-02T20:28:17.543Z,59.00
2023-04-02T20:31:17.966Z,60.00
2023-04-02T20:34:16.532Z,61.90
2023-04-02T20:37:14.576Z,62.50
2023-04-02T20:40:12.441Z,63.50
2023-04-02T20:43:11.168Z,65.50
2023-04-02T20:46:10.986Z,64.30
2023-04-02T20:49:10.063Z,65.50
2023-04-02T20:52:08.175Z,66.00
2023-04-02T20:55:06.973Z,64.10
2023-04-02T20:58:04.663Z,65.30
2023-04-02T21:01:17.677Z,66.90
2023-04-02T21:04:15.988Z,67.00
2023-04-02T21:07:13.845Z,65.10
2023-04-02T21:10:11.869Z,62.20
2023-04-02T21:13:09.708Z,62.10
2023-04-02T21:16:17.934Z,61.10
2023-04-02T21:19:16.071Z,62.80
2023-04-02T21:22:13.942Z,63.70
2023-04-02T21:25:12.600Z,62.30
2023-04-02T21:28:10.308Z,61.40
2023-04-02T21:31:17.119Z,60.50
2023-04-02T21:34:17.218Z,60.00
2023-04-02T21:37:15.088Z,63.80
2023-04-02T21:40:13.112Z,61.90
2023-04-02T21:43:10.990Z,61.00
2023-04-02T21:46:09.079Z,61.90
2023-04-02T21:49:10.820Z,61.50
2023-04-02T21:52:08.891Z,61.70
2023-04-02T21:55:06.840Z,63.80
2023-04-02T21:58:04.647Z,63.20
2023-04-02T22:01:03.419Z,66.20
2023-04-02T22:04:04.268Z,64.00
2023-04-02T22:07:02.513Z,65.00
2023-04-02T22:10:00.391Z,61.50
2023-04-02T22:12:58.099Z,63.80
2023-04-02T22:16:05.684Z,68.50
2023-04-02T22:19:07.709Z,69.80
2023-04-02T22:22:05.582Z,70.50
2023-04-02T22:25:04.037Z,71.00
2023-04-02T22:28:01.880Z,72.00
2023-04-02T22:31:07.312Z,72.50
2023-04-02T22:34:07.133Z,72.40
2023-04-02T22:37:04.815Z,73.60
2023-04-02T22:40:02.840Z,72.60
2023-04-02T22:43:00.886Z,72.40
2023-04-02T22:45:58.710Z,71.70
2023-04-02T22:48:57.163Z,72.00
2023-04-02T22:51:54.895Z,71.50
2023-04-02T22:54:52.922Z,71.70
2023-04-02T22:57:50.658Z,72.20
2023-04-02T23:00:49.695Z,72.10
2023-04-02T23:03:47.730Z,70.20
2023-04-02T23:06:45.426Z,69.50
2023-04-02T23:09:43.257Z,69.20
2023-04-02T23:12:41.379Z,66.20
2023-04-02T23:15:39.077Z,66.40
2023-04-02T23:18:37.669Z,65.60
2023-04-02T23:21:35.452Z,63.90
2023-04-02T23:24:33.263Z,60.50
2023-04-02T23:27:31.903Z,57.60
2023-04-02T23:30:29.771Z,58.90
2023-04-02T23:33:27.800Z,58.90
2023-04-02T23:36:27.334Z,60.20
2023-04-02T23:39:25.184Z,58.00
2023-04-02T23:42:23.014Z,59.20
2023-04-02T23:45:21.136Z,58.30
2023-04-02T23:48:19.084Z,56.80
2023-04-02T23:51:17.468Z,54.60
2023-04-02T23:54:16.109Z,55.20
2023-04-02T23:57:13.959Z,54.00
